createdAt,value
2019-02-20T00:02:03.940Z,69.77
2019-02-20T00:04:10.211Z,69.84
2019-02-20T00:06:16.426Z,69.82
2019-02-20T00:08:22.648Z,69.88
2019-02-20T00:10:28.899Z,69.83
2019-02-20T00:12:35.161Z,69.70
2019-02-20T00:14:41.317Z,69.81
2019-02-20T00:16:47.716Z,69.67
2019-02-20T00:18:54.155Z,69.36
2019-02-20T00:21:00.374Z,69.25
2019-02-20T00:23:06.622Z,69.15
2019-02-20T00:25:12.853Z,69.10
2019-02-20T00:27:19.220Z,69.00
2019-02-20T00:29:25.405Z,68.93
2019-02-20T00:31:31.726Z,68.72
2019-02-20T00:33:37.954Z,68.45
2019-02-20T00:35:44.146Z,68.30
2019-02-20T00:37:50.512Z,68.16
2019-02-20T00:39:56.731Z,68.29
2019-02-20T00:42:03.051Z,68.10
2019-02-20T00:44:14.057Z,68.05
2019-02-20T00:46:24.982Z,68.11
2019-02-20T00:48:45.116Z,68.13
2019-02-20T00:50:52.899Z,68.06
2019-02-20T00:53:12.641Z,67.97
2019-02-20T00:55:19.103Z,67.80
2019-02-20T00:57:25.324Z,67.69
2019-02-20T00:59:31.527Z,67.40
2019-02-20T01:01:37.815Z,67.13
2019-02-20T01:03:44.026Z,67.27
2019-02-20T01:05:50.260Z,67.36
2019-02-20T01:07:56.587Z,67.57
2019-02-20T01:10:02.815Z,67.57
2019-02-20T01:12:09.952Z,67.94
2019-02-20T01:14:16.286Z,67.93
2019-02-20T01:16:23.572Z,68.14
2019-02-20T01:18:30.141Z,68.19
2019-02-20T01:20:36.319Z,68.39
2019-02-20T01:22:42.625Z,68.56
2019-02-20T01:24:48.788Z,68.80
2019-02-20T01:26:54.961Z,68.54
2019-02-20T01:29:01.205Z,68.41
2019-02-20T01:31:07.443Z,68.40
2019-02-20T01:33:13.625Z,68.63
2019-02-20T01:35:19.941Z,68.53
2019-02-20T01:37:26.091Z,68.42
2019-02-20T01:39:32.344Z,68.36
2019-02-20T01:41:38.510Z,68.30
2019-02-20T01:43:44.663Z,68.24
2019-02-20T01:45:50.855Z,68.42
2019-02-20T01:47:56.999Z,68.30
2019-02-20T01:50:03.221Z,68.54
2019-02-20T01:52:10.353Z,68.54
2019-02-20T01:54:16.574Z,68.56
2019-02-20T01:56:22.823Z,68.57
2019-02-20T01:58:29.069Z,68.62
2019-02-20T02:00:35.226Z,68.67
2019-02-20T02:02:41.459Z,68.76
2019-02-20T02:04:47.858Z,68.86
2019-02-20T02:06:54.066Z,68.85
2019-02-20T02:09:00.294Z,69.03
2019-02-20T02:11:08.194Z,69.03
2019-02-20T02:13:18.579Z,69.04
2019-02-20T02:15:24.807Z,69.16
2019-02-20T02:17:31.007Z,69.37
2019-02-20T02:19:37.335Z,69.48
2019-02-20T02:21:43.548Z,69.71
2019-02-20T02:23:49.907Z,69.82
2019-02-20T02:25:56.057Z,69.88
2019-02-20T02:28:02.206Z,69.67
2019-02-20T02:30:12.835Z,69.74
2019-02-20T02:32:19.122Z,69.75
2019-02-20T02:34:25.366Z,69.77
2019-02-20T02:36:31.617Z,69.71
2019-02-20T02:38:37.905Z,69.55
2019-02-20T02:40:44.223Z,69.61
2019-02-20T02:42:50.404Z,69.59
2019-02-20T02:44:56.638Z,69.51
2019-02-20T02:47:02.792Z,69.57
2019-02-20T02:49:09.000Z,69.48
2019-02-20T02:51:15.220Z,69.45
2019-02-20T02:53:30.366Z,69.56
2019-02-20T02:55:29.460Z,69.52
2019-02-20T02:57:35.709Z,69.42
2019-02-20T02:59:41.977Z,69.41
2019-02-20T03:01:48.223Z,69.41
2019-02-20T03:03:54.379Z,69.69
2019-02-20T03:06:00.567Z,69.70
2019-02-20T03:08:06.739Z,69.70
2019-02-20T03:10:13.034Z,69.74
2019-02-20T03:12:19.201Z,69.91
2019-02-20T03:14:26.200Z,69.88
2019-02-20T03:16:32.467Z,69.82
2019-02-20T03:18:38.893Z,69.82
2019-02-20T03:20:45.262Z,69.77
2019-02-20T03:22:51.520Z,69.71
2019-02-20T03:24:57.890Z,69.60
2019-02-20T03:27:04.133Z,69.64
2019-02-20T03:29:10.368Z,69.68
2019-02-20T03:31:16.586Z,69.71
2019-02-20T03:33:22.888Z,69.61
2019-02-20T03:35:29.036Z,69.86
2019-02-20T03:37:35.183Z,69.94
2019-02-20T03:39:41.357Z,69.78
2019-02-20T03:41:49.055Z,69.71
2019-02-20T03:43:55.348Z,69.70
2019-02-20T03:46:01.532Z,69.72
2019-02-20T03:48:07.674Z,69.82
2019-02-20T03:50:13.918Z,69.80
2019-02-20T03:52:20.131Z,69.72
2019-02-20T03:54:26.356Z,69.71
2019-02-20T03:56:32.595Z,69.71
2019-02-20T03:58:38.775Z,69.75
2019-02-20T04:00:44.932Z,69.75
2019-02-20T04:02:51.233Z,69.90
2019-02-20T04:04:57.414Z,70.02
2019-02-20T04:07:03.567Z,70.09
2019-02-20T04:09:11.000Z,70.12
2019-02-20T04:11:17.183Z,70.23
2019-02-20T04:13:23.344Z,70.32
2019-02-20T04:15:29.848Z,70.13
2019-02-20T04:17:36.058Z,70.38
2019-02-20T04:19:42.221Z,70.55
2019-02-20T04:21:48.429Z,70.64
2019-02-20T04:24:01.826Z,70.70
2019-02-20T04:26:02.635Z,70.74
2019-02-20T04:28:08.881Z,70.90
2019-02-20T04:30:15.070Z,71.22
2019-02-20T04:32:21.360Z,71.36
2019-02-20T04:34:27.503Z,71.66
2019-02-20T04:36:33.751Z,71.87
2019-02-20T04:38:40.037Z,71.92
2019-02-20T04:40:46.264Z,71.78
2019-02-20T04:42:52.506Z,71.55
2019-02-20T04:44:58.740Z,71.18
2019-02-20T04:47:04.889Z,70.94
2019-02-20T04:49:11.085Z,70.91
2019-02-20T04:51:17.299Z,70.95
2019-02-20T04:53:23.448Z,70.98
2019-02-20T04:55:29.666Z,70.96
2019-02-20T04:57:36.833Z,71.02
2019-02-20T04:59:42.983Z,71.04
2019-02-20T05:01:49.297Z,70.95
2019-02-20T05:03:55.507Z,70.86
2019-02-20T05:06:01.658Z,71.06
2019-02-20T05:08:07.922Z,70.92
2019-02-20T05:10:14.111Z,70.63
2019-02-20T05:12:20.340Z,70.81
2019-02-20T05:14:26.504Z,70.78
2019-02-20T05:16:33.209Z,70.59
2019-02-20T05:18:39.370Z,70.47
2019-02-20T05:20:45.556Z,70.12
2019-02-20T05:22:51.798Z,70.03
2019-02-20T05:24:57.924Z,71.21
2019-02-20T05:27:04.274Z,68.65
2019-02-20T05:29:10.431Z,68.61
2019-02-20T05:31:16.775Z,68.46
2019-02-20T05:33:23.050Z,68.45
2019-02-20T05:35:29.224Z,68.43
2019-02-20T05:37:35.472Z,68.46
2019-02-20T05:39:41.713Z,68.53
2019-02-20T05:41:47.926Z,68.56
2019-02-20T05:43:54.148Z,68.47
2019-02-20T05:46:00.394Z,68.27
2019-02-20T05:48:06.771Z,68.54
2019-02-20T05:50:12.983Z,68.63
2019-02-20T05:52:19.220Z,69.02
2019-02-20T05:54:34.154Z,69.03
2019-02-20T05:56:33.266Z,69.23
2019-02-20T05:58:39.452Z,69.09
2019-02-20T06:00:45.773Z,69.19
2019-02-20T06:02:51.925Z,68.97
2019-02-20T06:04:58.094Z,69.11
2019-02-20T06:07:04.238Z,68.99
2019-02-20T06:09:10.376Z,68.94
2019-02-20T06:11:16.690Z,68.83
2019-02-20T06:13:22.907Z,69.04
2019-02-20T06:15:29.054Z,69.00
2019-02-20T06:17:35.223Z,69.02
2019-02-20T06:19:41.401Z,69.19
2019-02-20T06:21:47.610Z,69.26
2019-02-20T06:23:53.796Z,69.25
2019-02-20T06:25:59.939Z,69.05
2019-02-20T06:28:06.084Z,68.86
2019-02-20T06:30:13.226Z,68.86
2019-02-20T06:32:19.441Z,68.63
2019-02-20T06:34:25.601Z,68.47
2019-02-20T06:36:31.771Z,68.25
2019-02-20T06:38:37.916Z,68.04
2019-02-20T06:40:44.131Z,68.04
2019-02-20T06:42:50.316Z,67.87
2019-02-20T06:44:56.611Z,67.87
2019-02-20T06:47:02.742Z,67.92
2019-02-20T06:49:08.998Z,68.12
2019-02-20T06:51:15.209Z,67.82
2019-02-20T06:53:21.353Z,67.51
2019-02-20T06:55:27.599Z,67.56
2019-02-20T06:57:33.741Z,67.39
2019-02-20T06:59:39.941Z,66.53
2019-02-20T07:01:46.203Z,66.08
2019-02-20T07:03:52.410Z,65.53
2019-02-20T07:06:15.530Z,65.78
2019-02-20T07:08:48.946Z,65.91
2019-02-20T07:11:35.491Z,65.78
2019-02-20T07:13:58.132Z,65.95
2019-02-20T07:16:24.128Z,65.99
2019-02-20T07:18:38.392Z,66.24
2019-02-20T07:20:58.427Z,66.41
2019-02-20T07:23:24.444Z,66.34
2019-02-20T07:25:35.484Z,66.23
2019-02-20T07:27:55.368Z,66.62
2019-02-20T07:30:03.505Z,66.47
2019-02-20T07:32:11.236Z,65.36
2019-02-20T07:34:17.425Z,63.19
2019-02-20T07:36:23.578Z,62.94
2019-02-20T07:38:29.793Z,63.39
2019-02-20T07:40:37.308Z,63.14
2019-02-20T07:42:43.533Z,60.88
2019-02-20T07:44:49.747Z,59.60
2019-02-20T07:46:56.110Z,60.08
2019-02-20T07:49:02.334Z,59.70
2019-02-20T07:51:08.481Z,58.71
2019-02-20T07:53:14.658Z,54.59
2019-02-20T07:55:20.896Z,51.93
2019-02-20T07:57:28.112Z,51.51
2019-02-20T07:59:34.432Z,51.06
2019-02-20T08:01:40.646Z,50.67
2019-02-20T08:03:48.627Z,52.14
2019-02-20T08:05:55.016Z,47.33
2019-02-20T08:08:01.593Z,46.06
2019-02-20T08:10:11.253Z,46.45
2019-02-20T08:12:17.585Z,49.11
2019-02-20T08:14:23.805Z,52.34
2019-02-20T08:16:30.008Z,53.28
2019-02-20T08:18:36.431Z,54.17
2019-02-20T08:20:42.645Z,53.94
2019-02-20T08:22:48.935Z,54.65
2019-02-20T08:24:55.256Z,55.81
2019-02-20T08:27:01.550Z,57.61
2019-02-20T08:29:07.992Z,58.66
2019-02-20T08:31:14.186Z,58.67
2019-02-20T08:33:20.544Z,59.23
2019-02-20T08:35:26.828Z,59.08
2019-02-20T08:37:33.074Z,57.81
2019-02-20T08:39:39.366Z,56.73
2019-02-20T08:41:45.578Z,56.95
2019-02-20T08:43:52.023Z,57.51
2019-02-20T08:45:58.534Z,57.32
2019-02-20T08:48:04.887Z,56.44
2019-02-20T08:50:13.219Z,57.26
2019-02-20T08:52:19.424Z,57.31
2019-02-20T08:54:25.705Z,56.38
2019-02-20T08:56:32.115Z,56.46
2019-02-20T08:58:38.323Z,56.24
2019-02-20T09:00:44.519Z,55.58
2019-02-20T09:02:50.761Z,55.67
2019-02-20T09:04:57.063Z,54.91
2019-02-20T09:07:03.272Z,54.20
2019-02-20T09:09:09.808Z,54.50
2019-02-20T09:11:16.173Z,54.75
2019-02-20T09:13:24.054Z,54.90
2019-02-20T09:15:30.305Z,54.96
2019-02-20T09:17:38.222Z,54.66
2019-02-20T09:19:44.630Z,54.07
2019-02-20T09:21:50.964Z,52.74
2019-02-20T09:23:57.253Z,52.49
2019-02-20T09:26:03.398Z,51.22
2019-02-20T09:28:09.887Z,51.27
2019-02-20T09:30:16.825Z,50.30
2019-02-20T09:32:23.279Z,51.34
2019-02-20T09:34:29.669Z,52.63
2019-02-20T09:36:36.100Z,52.80
2019-02-20T09:38:42.376Z,53.60
2019-02-20T09:40:48.691Z,53.56
2019-02-20T09:42:56.253Z,53.58
2019-02-20T09:45:04.017Z,53.91
2019-02-20T09:47:10.734Z,53.37
2019-02-20T09:49:17.015Z,53.17
2019-02-20T09:51:23.303Z,52.79
2019-02-20T09:53:29.685Z,52.25
2019-02-20T09:55:36.027Z,52.38
2019-02-20T09:57:42.345Z,53.00
2019-02-20T09:59:48.505Z,53.64
2019-02-20T10:01:55.869Z,53.48
2019-02-20T10:04:02.157Z,53.32
2019-02-20T10:06:09.533Z,52.97
2019-02-20T10:08:15.747Z,52.38
2019-02-20T10:10:21.956Z,52.11
2019-02-20T10:12:28.267Z,51.80
2019-02-20T10:14:34.560Z,51.67
2019-02-20T10:16:40.931Z,51.16
2019-02-20T10:18:47.111Z,50.37
2019-02-20T10:20:53.243Z,50.18
2019-02-20T10:22:59.619Z,52.25
2019-02-20T10:25:08.999Z,54.05
2019-02-20T10:27:15.301Z,55.98
2019-02-20T10:29:22.603Z,56.37
2019-02-20T10:31:30.156Z,55.94
2019-02-20T10:33:37.717Z,55.55
2019-02-20T10:35:43.993Z,54.80
2019-02-20T10:37:50.245Z,54.29
2019-02-20T10:39:56.606Z,53.77
2019-02-20T10:42:02.826Z,53.27
2019-02-20T10:44:09.139Z,53.09
2019-02-20T10:46:15.427Z,52.27
2019-02-20T10:48:21.710Z,52.25
2019-02-20T10:50:27.869Z,52.80
2019-02-20T10:52:34.218Z,53.26
2019-02-20T10:54:40.431Z,54.06
2019-02-20T10:56:46.755Z,54.60
2019-02-20T10:58:53.057Z,53.92
2019-02-20T11:00:59.476Z,54.26
2019-02-20T11:03:05.941Z,53.78
2019-02-20T11:05:12.233Z,53.62
2019-02-20T11:07:18.746Z,53.92
2019-02-20T11:09:25.038Z,53.37
2019-02-20T11:11:31.567Z,52.96
2019-02-20T11:13:37.785Z,51.91
2019-02-20T11:15:44.173Z,51.39
2019-02-20T11:17:50.731Z,51.75
2019-02-20T11:19:57.011Z,52.37
2019-02-20T11:22:03.402Z,53.17
2019-02-20T11:24:09.655Z,54.07
2019-02-20T11:26:18.533Z,54.40
2019-02-20T11:28:26.927Z,54.72
2019-02-20T11:30:32.335Z,55.04
2019-02-20T11:32:38.547Z,54.71
2019-02-20T11:34:44.879Z,54.77
2019-02-20T11:36:51.010Z,54.99
2019-02-20T11:38:57.237Z,55.01
2019-02-20T11:41:04.056Z,54.59
2019-02-20T11:43:11.570Z,54.14
2019-02-20T11:45:18.423Z,53.74
2019-02-20T11:49:31.311Z,52.74
2019-02-20T11:51:38.690Z,52.85
2019-02-20T11:53:46.221Z,52.54
2019-02-20T11:55:52.426Z,52.80
2019-02-20T11:58:00.858Z,53.23
2019-02-20T12:00:18.720Z,53.41
2019-02-20T12:02:25.457Z,53.66
2019-02-20T12:04:31.807Z,54.06
2019-02-20T12:06:38.167Z,54.52
2019-02-20T12:08:44.481Z,54.49
2019-02-20T12:10:50.690Z,55.04
2019-02-20T12:12:56.981Z,55.27
2019-02-20T12:15:03.352Z,55.06
2019-02-20T12:17:09.724Z,54.61
2019-02-20T12:19:15.922Z,54.31
2019-02-20T12:21:22.300Z,53.67
2019-02-20T12:23:36.404Z,53.50
2019-02-20T12:25:36.718Z,54.04
2019-02-20T12:27:43.030Z,53.94
2019-02-20T12:29:49.315Z,53.29
2019-02-20T12:31:56.544Z,53.38
2019-02-20T12:34:03.092Z,53.63
2019-02-20T12:36:09.353Z,53.63
2019-02-20T12:38:15.815Z,54.29
2019-02-20T12:40:22.051Z,54.36
2019-02-20T12:42:28.259Z,54.29
2019-02-20T12:44:34.699Z,53.79
2019-02-20T12:46:41.156Z,53.42
2019-02-20T12:48:47.443Z,52.82
2019-02-20T12:50:53.789Z,52.89
2019-02-20T12:53:00.028Z,52.91
2019-02-20T12:55:08.869Z,52.39
2019-02-20T12:57:15.347Z,52.01
2019-02-20T12:59:21.790Z,51.94
2019-02-20T13:01:27.998Z,51.72
2019-02-20T13:03:34.204Z,51.42
2019-02-20T13:05:40.526Z,51.21
2019-02-20T13:07:47.123Z,51.19
2019-02-20T13:09:53.612Z,50.85
2019-02-20T13:11:59.958Z,50.57
2019-02-20T13:14:06.273Z,50.47
2019-02-20T13:16:12.635Z,50.61
2019-02-20T13:18:20.079Z,50.97
2019-02-20T13:20:26.688Z,51.48
2019-02-20T13:22:32.987Z,51.78
2019-02-20T13:24:39.289Z,51.97
2019-02-20T13:26:52.842Z,52.33
2019-02-20T13:28:53.562Z,52.43
2019-02-20T13:31:00.142Z,52.46
2019-02-20T13:33:06.424Z,52.36
2019-02-20T13:35:12.729Z,52.33
2019-02-20T13:37:19.207Z,52.41
2019-02-20T13:39:25.490Z,52.46
2019-02-20T13:41:31.761Z,52.55
2019-02-20T13:43:38.222Z,52.31
2019-02-20T13:45:44.575Z,52.22
2019-02-20T13:47:50.866Z,52.06
2019-02-20T13:49:57.258Z,52.43
2019-02-20T13:52:03.833Z,52.18
2019-02-20T13:54:10.127Z,51.84
2019-02-20T13:56:16.450Z,52.13
2019-02-20T13:58:22.672Z,52.40
2019-02-20T14:00:29.030Z,52.40
2019-02-20T14:02:35.316Z,52.22
2019-02-20T14:04:41.602Z,52.17
2019-02-20T14:06:48.022Z,52.46
2019-02-20T14:08:54.257Z,52.68
2019-02-20T14:11:00.483Z,52.92
2019-02-20T14:13:08.655Z,52.92
2019-02-20T14:15:14.972Z,53.21
2019-02-20T14:17:26.640Z,53.36
2019-02-20T14:19:29.158Z,53.47
2019-02-20T14:21:35.401Z,53.58
2019-02-20T14:23:41.959Z,53.93
2019-02-20T14:25:48.504Z,53.81
2019-02-20T14:27:54.848Z,54.04
2019-02-20T14:30:02.765Z,54.26
2019-02-20T14:32:10.632Z,54.38
2019-02-20T14:34:17.161Z,54.37
2019-02-20T14:36:24.442Z,54.39
2019-02-20T14:38:31.978Z,54.43
2019-02-20T14:40:38.645Z,54.30
2019-02-20T14:42:44.949Z,54.00
2019-02-20T14:44:51.310Z,54.45
2019-02-20T14:46:57.722Z,54.32
2019-02-20T14:49:03.981Z,54.26
2019-02-20T14:51:10.449Z,54.16
2019-02-20T14:53:16.767Z,54.10
2019-02-20T14:55:22.979Z,53.97
2019-02-20T14:57:29.337Z,53.46
2019-02-20T14:59:35.720Z,53.63
2019-02-20T15:01:42.007Z,53.15
2019-02-20T15:03:48.841Z,53.43
2019-02-20T15:05:55.228Z,53.46
2019-02-20T15:08:02.495Z,53.72
2019-02-20T15:10:10.354Z,53.65
2019-02-20T15:12:16.863Z,53.88
2019-02-20T15:14:23.147Z,53.99
2019-02-20T15:16:29.797Z,54.38
2019-02-20T15:18:36.109Z,54.61
2019-02-20T15:20:42.413Z,54.77
2019-02-20T15:22:48.705Z,54.69
2019-02-20T15:24:55.103Z,54.81
2019-02-20T15:27:01.441Z,54.68
2019-02-20T15:29:08.376Z,54.88
2019-02-20T15:31:14.812Z,54.71
2019-02-20T15:33:21.043Z,54.69
2019-02-20T15:35:27.393Z,54.39
2019-02-20T15:37:33.900Z,54.37
2019-02-20T15:39:40.291Z,54.38
2019-02-20T15:41:46.947Z,54.75
2019-02-20T15:43:53.369Z,54.66
2019-02-20T15:45:59.580Z,54.86
2019-02-20T15:48:05.889Z,55.10
2019-02-20T15:50:15.662Z,55.31
2019-02-20T15:52:21.948Z,55.58
2019-02-20T15:54:28.549Z,55.81
2019-02-20T15:56:34.850Z,55.94
2019-02-20T15:58:41.120Z,56.03
2019-02-20T16:00:48.847Z,56.08
2019-02-20T16:02:55.292Z,56.38
2019-02-20T16:05:01.648Z,56.52
2019-02-20T16:07:09.268Z,56.41
2019-02-20T16:09:15.519Z,56.29
2019-02-20T16:11:21.722Z,56.28
2019-02-20T16:13:28.084Z,56.07
2019-02-20T16:15:34.335Z,55.97
2019-02-20T16:17:40.548Z,55.92
2019-02-20T16:19:46.976Z,55.52
2019-02-20T16:21:53.359Z,55.31
2019-02-20T16:23:59.781Z,54.98
2019-02-20T16:26:06.063Z,54.95
2019-02-20T16:28:12.433Z,55.12
2019-02-20T16:30:18.988Z,55.36
2019-02-20T16:32:25.407Z,54.53
2019-02-20T16:34:33.529Z,54.89
2019-02-20T16:36:39.879Z,54.95
2019-02-20T16:38:46.180Z,55.03
2019-02-20T16:40:52.574Z,54.97
2019-02-20T16:42:58.856Z,54.96
2019-02-20T16:45:19.286Z,55.05
2019-02-20T16:47:24.899Z,54.87
2019-02-20T16:49:33.352Z,54.76
2019-02-20T16:51:41.369Z,54.93
2019-02-20T16:53:47.733Z,55.08
2019-02-20T16:55:55.691Z,55.32
2019-02-20T16:58:03.955Z,55.49
2019-02-20T17:00:13.616Z,55.27
2019-02-20T17:02:20.521Z,55.39
2019-02-20T17:04:26.736Z,55.00
2019-02-20T17:06:33.065Z,54.49
2019-02-20T17:08:42.621Z,54.21
2019-02-20T17:10:48.991Z,53.91
2019-02-20T17:12:56.950Z,53.64
2019-02-20T17:15:03.312Z,53.81
2019-02-20T17:17:09.738Z,54.04
2019-02-20T17:19:16.277Z,54.42
2019-02-20T17:21:23.912Z,54.74
2019-02-20T17:23:30.858Z,55.13
2019-02-20T17:25:37.516Z,55.28
2019-02-20T17:27:45.118Z,55.42
2019-02-20T17:29:51.541Z,55.61
2019-02-20T17:31:58.197Z,55.79
2019-02-20T17:34:04.480Z,55.99
2019-02-20T17:36:10.975Z,56.09
2019-02-20T17:38:17.352Z,56.19
2019-02-20T17:40:23.731Z,56.52
2019-02-20T17:42:30.290Z,56.50
2019-02-20T17:44:36.601Z,56.62
2019-02-20T17:46:42.811Z,56.87
2019-02-20T17:48:49.188Z,57.12
2019-02-20T17:50:55.670Z,57.15
2019-02-20T17:53:01.973Z,57.40
2019-02-20T17:55:10.031Z,57.71
2019-02-20T17:57:17.425Z,57.97
2019-02-20T17:59:23.866Z,58.17
2019-02-20T18:01:30.203Z,58.52
2019-02-20T18:03:36.668Z,58.68
2019-02-20T18:05:43.029Z,58.87
2019-02-20T18:07:51.897Z,59.00
2019-02-20T18:09:57.269Z,59.24
2019-02-20T18:12:04.180Z,59.38
2019-02-20T18:14:11.529Z,59.47
2019-02-20T18:16:17.917Z,59.78
2019-02-20T18:18:25.613Z,59.82
2019-02-20T18:20:32.051Z,59.81
2019-02-20T18:22:38.626Z,60.02
2019-02-20T18:24:45.491Z,60.08
2019-02-20T18:26:53.417Z,60.24
2019-02-20T18:28:59.896Z,60.40
2019-02-20T18:31:07.980Z,60.47
2019-02-20T18:33:14.291Z,60.69
2019-02-20T18:35:20.758Z,60.86
2019-02-20T18:37:27.051Z,61.17
2019-02-20T18:39:33.334Z,61.28
2019-02-20T18:41:39.807Z,61.42
2019-02-20T18:43:46.859Z,61.50
2019-02-20T18:45:53.280Z,61.71
2019-02-20T18:47:59.726Z,61.72
2019-02-20T18:50:09.554Z,61.97
2019-02-20T18:52:15.910Z,61.91
2019-02-20T18:54:22.227Z,62.17
2019-02-20T18:56:29.583Z,62.24
2019-02-20T18:58:36.008Z,62.47
2019-02-20T19:00:42.331Z,62.75
2019-02-20T19:02:50.189Z,62.71
2019-02-20T19:04:56.453Z,62.91
2019-02-20T19:07:08.713Z,63.03
2019-02-20T19:09:19.574Z,63.02
2019-02-20T19:11:36.701Z,63.16
2019-02-20T19:14:21.177Z,63.23
2019-02-20T19:16:40.843Z,63.10
2019-02-20T19:19:03.708Z,63.50
2019-02-20T19:21:33.928Z,63.33
2019-02-20T19:24:13.662Z,63.49
2019-02-20T19:26:42.445Z,63.45
2019-02-20T19:29:02.522Z,63.36
2019-02-20T19:31:36.068Z,63.40
2019-02-20T19:34:03.944Z,63.45
2019-02-20T19:36:53.072Z,63.40
2019-02-20T19:39:09.828Z,63.62
2019-02-20T19:41:37.242Z,63.39
2019-02-20T19:44:07.889Z,63.42
2019-02-20T19:46:40.219Z,63.42
2019-02-20T19:49:06.022Z,63.50
2019-02-20T19:51:28.627Z,63.61
2019-02-20T19:53:50.012Z,63.66
2019-02-20T19:56:26.804Z,63.93
2019-02-20T19:58:57.793Z,64.06
2019-02-20T20:01:28.836Z,64.39
2019-02-20T20:04:13.015Z,64.75
2019-02-20T20:06:55.495Z,65.13
2019-02-20T20:09:38.696Z,65.41
2019-02-20T20:12:10.119Z,65.62
2019-02-20T20:14:43.944Z,65.68
2019-02-20T20:17:22.722Z,65.89
2019-02-20T20:19:53.109Z,66.27
2019-02-20T20:22:04.253Z,66.17
2019-02-20T20:24:42.569Z,65.95
2019-02-20T20:27:05.205Z,65.94
2019-02-20T20:29:32.426Z,66.05
2019-02-20T20:31:43.579Z,66.00
2019-02-20T20:34:09.536Z,65.98
2019-02-20T20:36:41.428Z,66.12
2019-02-20T20:39:39.296Z,66.10
2019-02-20T20:42:15.965Z,66.21
2019-02-20T20:44:58.643Z,66.10
2019-02-20T20:47:33.790Z,66.21
2019-02-20T20:49:49.331Z,66.17
2019-02-20T20:52:33.910Z,66.11
2019-02-20T20:55:18.319Z,66.17
2019-02-20T20:58:04.215Z,66.04
2019-02-20T21:00:36.170Z,65.80
2019-02-20T21:02:47.073Z,65.80
2019-02-20T21:05:19.460Z,65.79
2019-02-20T21:07:39.052Z,65.65
2019-02-20T21:10:15.328Z,65.74
2019-02-20T21:12:35.562Z,65.72
2019-02-20T21:14:52.032Z,65.64
2019-02-20T21:17:27.331Z,65.75
2019-02-20T21:19:41.285Z,65.56
2019-02-20T21:21:59.479Z,65.44
2019-02-20T21:24:40.210Z,65.41
2019-02-20T21:27:06.055Z,65.28
2019-02-20T21:29:40.029Z,65.21
2019-02-20T21:32:06.869Z,64.95
2019-02-20T21:34:45.022Z,64.57
2019-02-20T21:37:13.637Z,64.61
2019-02-20T21:39:27.935Z,63.43
2019-02-20T21:41:54.204Z,62.79
2019-02-20T21:44:17.460Z,62.31
2019-02-20T21:46:47.819Z,62.30
2019-02-20T21:49:23.956Z,62.24
2019-02-20T21:52:14.324Z,62.18
2019-02-20T21:54:56.706Z,61.50
2019-02-20T21:57:22.519Z,61.26
2019-02-20T21:59:39.595Z,61.63
2019-02-20T22:02:08.365Z,61.97
2019-02-20T22:04:31.055Z,62.31
2019-02-20T22:07:06.356Z,62.19
2019-02-20T22:09:17.489Z,62.21
2019-02-20T22:11:55.210Z,62.29
2019-02-20T22:14:48.630Z,62.47
2019-02-20T22:17:02.194Z,62.23
2019-02-20T22:19:46.282Z,62.47
2019-02-20T22:22:33.620Z,62.70
2019-02-20T22:25:25.370Z,62.61
2019-02-20T22:27:54.463Z,62.53
2019-02-20T22:30:08.274Z,62.06
2019-02-20T22:32:39.058Z,61.03
2019-02-20T22:35:29.553Z,59.79
2019-02-20T22:38:24.440Z,58.69
2019-02-20T22:40:53.241Z,58.82
2019-02-20T22:43:41.939Z,58.41
2019-02-20T22:46:14.050Z,58.33
2019-02-20T22:48:39.412Z,58.45
2019-02-20T22:51:17.942Z,58.75
2019-02-20T22:53:56.969Z,59.24
2019-02-20T22:56:22.728Z,59.77
2019-02-20T22:58:42.073Z,60.13
2019-02-20T23:01:10.033Z,60.34
2019-02-20T23:03:35.812Z,60.41
2019-02-20T23:05:46.861Z,60.78
2019-02-20T23:08:22.721Z,61.00
2019-02-20T23:10:56.163Z,61.18
2019-02-20T23:13:13.138Z,61.28
2019-02-20T23:15:19.653Z,61.23
2019-02-20T23:17:27.248Z,61.46
2019-02-20T23:19:33.643Z,61.41
2019-02-20T23:21:39.959Z,61.14
2019-02-20T23:23:46.352Z,60.92
2019-02-20T23:25:52.625Z,60.76
2019-02-20T23:27:58.923Z,60.72
2019-02-20T23:30:12.956Z,60.62
2019-02-20T23:32:17.858Z,60.66
2019-02-20T23:34:24.140Z,60.76
2019-02-20T23:36:30.583Z,60.69
2019-02-20T23:38:36.874Z,60.38
2019-02-20T23:40:43.171Z,60.45
2019-02-20T23:42:49.478Z,60.44
2019-02-20T23:44:55.766Z,60.59
2019-02-20T23:47:01.953Z,60.61
2019-02-20T23:49:08.271Z,60.57
2019-02-20T23:51:14.566Z,60.67
2019-02-20T23:53:20.989Z,60.54
2019-02-20T23:55:27.257Z,60.66
2019-02-20T23:57:33.545Z,60.79
2019-02-20T23:59:39.839Z,60.69
